createdAt,value
2018-08-10T00:00:41.009Z,2.33
2018-08-10T00:03:10.328Z,1.27
2018-08-10T00:05:39.815Z,0.83
2018-08-10T00:08:08.950Z,2.03
2018-08-10T00:10:37.679Z,1.00
2018-08-10T00:13:06.414Z,1.40
2018-08-10T00:15:35.085Z,1.40
2018-08-10T00:18:03.849Z,1.10
2018-08-10T00:20:32.677Z,2.53
2018-08-10T00:23:01.401Z,1.43
2018-08-10T00:25:30.234Z,1.10
2018-08-10T00:27:59.078Z,1.40
2018-08-10T00:30:27.988Z,1.63
2018-08-10T00:32:56.796Z,1.13
2018-08-10T00:35:25.587Z,1.60
2018-08-10T00:37:54.692Z,0.90
2018-08-10T00:40:24.278Z,1.20
2018-08-10T00:42:53.216Z,1.60
2018-08-10T00:45:21.904Z,1.77
2018-08-10T00:47:50.576Z,1.60
2018-08-10T00:50:19.395Z,1.17
2018-08-10T00:52:49.002Z,0.90
2018-08-10T00:55:18.884Z,2.37
2018-08-10T00:57:48.393Z,1.50
2018-08-10T01:00:20.988Z,1.10
2018-08-10T01:02:50.355Z,1.37
2018-08-10T01:05:19.383Z,1.87
2018-08-10T01:07:48.220Z,2.00
2018-08-10T01:10:18.484Z,1.13
2018-08-10T01:12:47.343Z,1.20
2018-08-10T01:15:17.784Z,3.00
2018-08-10T01:17:48.323Z,2.23
2018-08-10T01:20:22.172Z,1.10
2018-08-10T01:22:56.186Z,1.63
2018-08-10T01:25:26.861Z,2.70
2018-08-10T01:27:56.865Z,1.80
2018-08-10T01:30:26.942Z,1.20
2018-08-10T01:32:55.935Z,1.10
2018-08-10T01:35:25.386Z,0.87
2018-08-10T01:37:55.708Z,2.63
2018-08-10T01:40:24.466Z,3.53
2018-08-10T01:42:54.017Z,4.93
2018-08-10T01:45:22.822Z,1.70
2018-08-10T01:47:51.590Z,2.20
2018-08-10T01:50:20.405Z,1.53
2018-08-10T01:52:49.228Z,1.50
2018-08-10T01:55:18.090Z,1.43
2018-08-10T01:57:46.908Z,1.30
2018-08-10T02:00:15.637Z,1.47
2018-08-10T02:02:44.383Z,1.10
2018-08-10T02:05:14.542Z,1.53
2018-08-10T02:07:43.740Z,2.87
2018-08-10T02:10:14.803Z,2.23
2018-08-10T02:12:44.410Z,1.57
2018-08-10T02:15:15.275Z,1.00
2018-08-10T02:17:44.007Z,2.40
2018-08-10T02:20:15.209Z,1.30
2018-08-10T02:22:44.424Z,2.00
2018-08-10T02:25:14.826Z,2.80
2018-08-10T02:27:44.486Z,1.30
2018-08-10T02:30:14.650Z,1.30
2018-08-10T02:32:44.106Z,1.80
2018-08-10T02:35:12.968Z,1.77
2018-08-10T02:37:42.273Z,1.30
2018-08-10T02:40:16.329Z,1.20
2018-08-10T02:42:46.163Z,1.20
2018-08-10T02:45:15.385Z,1.20
2018-08-10T02:47:44.662Z,1.20
2018-08-10T02:50:13.513Z,2.73
2018-08-10T02:52:42.255Z,2.20
2018-08-10T02:55:11.666Z,2.30
2018-08-10T02:57:40.924Z,1.20
2018-08-10T03:00:12.196Z,1.57
2018-08-10T03:02:41.956Z,1.50
2018-08-10T03:05:11.308Z,3.97
2018-08-10T03:07:40.668Z,1.80
2018-08-10T03:10:11.243Z,3.37
2018-08-10T03:12:40.168Z,2.33
2018-08-10T03:15:11.671Z,1.63
2018-08-10T03:17:40.337Z,2.00
2018-08-10T03:20:09.773Z,2.13
2018-08-10T03:22:38.768Z,1.67
2018-08-10T03:25:08.892Z,1.47
2018-08-10T03:27:37.891Z,3.27
2018-08-10T03:30:08.053Z,3.37
2018-08-10T03:32:37.248Z,3.13
2018-08-10T03:35:06.163Z,3.80
2018-08-10T03:37:35.239Z,4.20
2018-08-10T03:40:04.497Z,1.27
2018-08-10T03:42:33.196Z,2.03
2018-08-10T03:45:01.948Z,2.47
2018-08-10T03:47:30.818Z,1.70
2018-08-10T03:49:59.667Z,1.37
2018-08-10T03:52:28.410Z,2.20
2018-08-10T03:54:57.178Z,2.83
2018-08-10T03:57:26.000Z,2.67
2018-08-10T03:59:54.633Z,2.43
2018-08-10T04:02:23.363Z,3.17
2018-08-10T04:04:52.071Z,2.30
2018-08-10T04:07:20.819Z,2.63
2018-08-10T04:09:49.777Z,3.93
2018-08-10T04:12:18.446Z,1.67
2018-08-10T04:14:47.619Z,2.57
2018-08-10T04:17:22.580Z,2.83
2018-08-10T04:19:52.072Z,3.57
2018-08-10T04:22:20.903Z,3.27
2018-08-10T04:24:49.910Z,2.33
2018-08-10T04:27:18.627Z,1.77
2018-08-10T04:29:47.582Z,2.03
2018-08-10T04:32:16.437Z,4.40
2018-08-10T04:34:45.242Z,3.57
2018-08-10T04:37:13.909Z,2.13
2018-08-10T04:39:42.607Z,2.43
2018-08-10T04:42:11.565Z,2.93
2018-08-10T04:44:40.600Z,4.37
2018-08-10T04:47:09.326Z,3.03
2018-08-10T04:49:38.015Z,5.63
2018-08-10T04:52:06.928Z,3.60
2018-08-10T04:54:35.600Z,2.80
2018-08-10T04:57:04.347Z,4.70
2018-08-10T04:59:33.361Z,3.03
2018-08-10T05:02:02.174Z,1.83
2018-08-10T05:04:31.022Z,2.73
2018-08-10T05:06:59.642Z,1.90
2018-08-10T05:09:28.443Z,2.93
2018-08-10T05:11:57.404Z,2.17
2018-08-10T05:14:26.146Z,3.37
2018-08-10T05:16:55.567Z,2.57
2018-08-10T05:19:24.482Z,2.90
2018-08-10T05:21:53.209Z,5.27
2018-08-10T05:24:22.467Z,5.07
2018-08-10T05:26:51.238Z,3.07
2018-08-10T05:29:19.856Z,3.27
2018-08-10T05:31:48.577Z,3.50
2018-08-10T05:34:17.301Z,4.10
2018-08-10T05:36:46.087Z,2.13
2018-08-10T05:39:14.683Z,5.53
2018-08-10T05:41:43.426Z,2.63
2018-08-10T05:44:12.467Z,5.03
2018-08-10T05:46:41.177Z,1.87
2018-08-10T05:49:09.840Z,3.03
2018-08-10T05:51:38.834Z,3.43
2018-08-10T05:54:07.991Z,2.50
2018-08-10T05:56:36.762Z,1.90
2018-08-10T05:59:05.732Z,3.90
2018-08-10T06:01:34.508Z,3.50
2018-08-10T06:04:03.244Z,3.03
2018-08-10T06:06:31.931Z,1.70
2018-08-10T06:09:00.638Z,7.43
2018-08-10T06:11:29.369Z,4.83
2018-08-10T06:13:58.199Z,1.97
2018-08-10T06:16:27.487Z,5.53
2018-08-10T06:18:56.149Z,5.50
2018-08-10T06:21:24.792Z,6.70
2018-08-10T06:23:53.524Z,7.30
2018-08-10T06:26:22.264Z,5.67
2018-08-10T06:28:51.106Z,4.57
2018-08-10T06:31:19.884Z,1.87
2018-08-10T06:33:48.900Z,4.67
2018-08-10T06:36:17.530Z,2.30
2018-08-10T06:38:46.276Z,5.23
2018-08-10T06:41:15.169Z,2.53
2018-08-10T06:43:43.788Z,2.23
2018-08-10T06:46:12.725Z,3.27
2018-08-10T06:48:41.569Z,2.67
2018-08-10T06:51:10.661Z,3.73
2018-08-10T06:53:39.352Z,3.47
2018-08-10T06:56:08.100Z,1.50
2018-08-10T06:58:36.945Z,3.53
2018-08-10T07:01:05.906Z,2.90
2018-08-10T07:03:34.773Z,6.53
2018-08-10T07:06:03.605Z,3.90
2018-08-10T07:08:32.248Z,3.27
2018-08-10T07:11:01.068Z,1.60
2018-08-10T07:13:29.823Z,1.70
2018-08-10T07:15:58.868Z,5.90
2018-08-10T07:18:27.810Z,2.63
2018-08-10T07:20:56.499Z,3.57
2018-08-10T07:23:25.560Z,2.33
2018-08-10T07:25:54.312Z,2.20
2018-08-10T07:28:23.057Z,3.43
2018-08-10T07:30:51.861Z,2.97
2018-08-10T07:33:20.515Z,3.67
2018-08-10T07:35:49.148Z,1.87
2018-08-10T07:38:18.061Z,1.90
2018-08-10T07:40:46.746Z,3.73
2018-08-10T07:43:15.489Z,3.73
2018-08-10T07:45:44.144Z,5.40
2018-08-10T07:48:12.810Z,4.87
2018-08-10T07:50:41.512Z,4.53
2018-08-10T07:53:10.317Z,2.97
2018-08-10T07:55:39.086Z,3.27
2018-08-10T07:58:08.046Z,1.33
2018-08-10T08:00:36.791Z,4.13
2018-08-10T08:03:05.657Z,2.63
2018-08-10T08:05:34.536Z,3.07
2018-08-10T08:08:03.280Z,6.70
2018-08-10T08:10:32.024Z,4.83
2018-08-10T08:13:00.789Z,3.93
2018-08-10T08:15:29.519Z,3.77
2018-08-10T08:17:58.297Z,4.10
2018-08-10T08:20:26.952Z,2.60
2018-08-10T08:23:02.047Z,7.10
2018-08-10T08:25:31.128Z,4.67
2018-08-10T08:28:00.005Z,7.90
2018-08-10T08:30:28.761Z,7.20
2018-08-10T08:32:57.555Z,2.87
2018-08-10T08:35:26.383Z,4.03
2018-08-10T08:38:00.628Z,2.97
2018-08-10T08:40:29.648Z,4.10
2018-08-10T08:42:58.637Z,3.07
2018-08-10T08:46:07.953Z,4.27
2018-08-10T08:48:39.302Z,3.23
2018-08-10T08:51:10.596Z,2.73
2018-08-10T08:53:39.335Z,3.13
2018-08-10T08:56:09.757Z,2.73
2018-08-10T08:58:39.151Z,3.03
2018-08-10T09:01:08.828Z,2.67
2018-08-10T09:03:48.710Z,3.17
2018-08-10T09:06:17.369Z,1.97
2018-08-10T09:08:57.257Z,2.60
2018-08-10T09:11:26.141Z,1.33
2018-08-10T09:15:03.846Z,4.13
2018-08-10T09:17:32.720Z,2.80
2018-08-10T09:20:01.799Z,8.20
2018-08-10T09:22:31.112Z,4.30
2018-08-10T09:25:00.022Z,4.23
2018-08-10T09:27:28.766Z,1.87
2018-08-10T09:29:57.589Z,6.33
2018-08-10T09:32:26.567Z,2.20
2018-08-10T09:34:55.219Z,4.27
2018-08-10T09:37:24.227Z,1.40
2018-08-10T09:39:52.955Z,1.90
2018-08-10T09:42:21.776Z,2.97
2018-08-10T09:44:50.620Z,2.93
2018-08-10T09:47:20.188Z,10.37
2018-08-10T09:49:50.184Z,3.77
2018-08-10T09:52:19.252Z,2.27
2018-08-10T09:55:40.856Z,2.03
2018-08-10T09:58:16.363Z,1.83
2018-08-10T10:00:50.150Z,5.50
2018-08-10T10:03:20.496Z,3.13
2018-08-10T10:05:50.526Z,2.20
2018-08-10T10:08:19.957Z,3.13
2018-08-10T10:10:48.847Z,3.30
2018-08-10T10:13:17.902Z,3.43
2018-08-10T10:15:46.652Z,3.80
2018-08-10T10:18:16.781Z,6.47
2018-08-10T10:20:46.485Z,2.23
2018-08-10T10:23:15.596Z,3.07
2018-08-10T10:25:44.453Z,3.53
2018-08-10T10:28:13.303Z,5.90
2018-08-10T10:30:42.161Z,2.77
2018-08-10T10:33:11.152Z,4.33
2018-08-10T10:35:40.209Z,6.80
2018-08-10T10:38:09.025Z,2.90
2018-08-10T10:40:37.986Z,3.57
2018-08-10T10:43:06.906Z,4.10
2018-08-10T10:45:35.973Z,6.43
2018-08-10T10:48:04.787Z,2.70
2018-08-10T10:50:33.788Z,2.83
2018-08-10T10:53:02.536Z,2.47
2018-08-10T10:55:31.647Z,4.33
2018-08-10T10:58:00.487Z,6.40
2018-08-10T11:00:29.215Z,3.73
2018-08-10T11:02:58.070Z,3.53
2018-08-10T11:05:27.054Z,5.13
2018-08-10T11:07:56.130Z,4.97
2018-08-10T11:10:24.979Z,4.63
2018-08-10T11:12:53.741Z,4.03
2018-08-10T11:15:22.891Z,5.20
2018-08-10T11:17:51.652Z,5.57
2018-08-10T11:20:20.513Z,2.57
2018-08-10T11:22:49.558Z,4.27
2018-08-10T11:25:18.439Z,5.13
2018-08-10T11:27:47.276Z,4.03
2018-08-10T11:30:15.983Z,3.50
2018-08-10T11:32:44.898Z,5.00
2018-08-10T11:35:13.861Z,6.30
2018-08-10T11:37:43.112Z,6.20
2018-08-10T11:40:14.523Z,4.60
2018-08-10T11:42:43.846Z,5.30
2018-08-10T11:45:15.811Z,2.83
2018-08-10T11:47:44.888Z,3.70
2018-08-10T11:50:13.708Z,4.73
2018-08-10T11:52:42.980Z,7.10
2018-08-10T11:55:13.733Z,4.43
2018-08-10T11:57:43.163Z,4.73
2018-08-10T12:00:13.644Z,4.80
2018-08-10T12:02:42.764Z,3.93
2018-08-10T12:05:12.744Z,4.97
2018-08-10T12:07:41.988Z,4.10
2018-08-10T12:10:10.975Z,8.80
2018-08-10T12:12:40.038Z,4.33
2018-08-10T12:15:11.118Z,6.00
2018-08-10T12:17:40.169Z,4.23
2018-08-10T12:20:09.716Z,5.57
2018-08-10T12:22:38.932Z,4.70
2018-08-10T12:25:07.885Z,8.70
2018-08-10T12:27:36.793Z,7.23
2018-08-10T12:30:06.789Z,7.73
2018-08-10T12:32:35.724Z,9.43
2018-08-10T12:35:04.724Z,5.00
2018-08-10T12:37:33.561Z,4.80
2018-08-10T12:40:02.326Z,9.63
2018-08-10T12:42:31.168Z,6.27
2018-08-10T12:45:00.125Z,7.70
2018-08-10T12:47:28.964Z,4.63
2018-08-10T12:49:57.842Z,8.60
2018-08-10T12:52:26.597Z,11.40
2018-08-10T12:54:55.491Z,4.97
2018-08-10T12:57:24.315Z,4.80
2018-08-10T12:59:53.102Z,7.03
2018-08-10T13:02:21.831Z,9.90
2018-08-10T13:04:50.743Z,11.07
2018-08-10T13:07:19.548Z,11.17
2018-08-10T13:09:48.564Z,10.90
2018-08-10T13:12:17.372Z,11.37
2018-08-10T13:14:46.913Z,9.83
2018-08-10T13:17:16.087Z,11.80
2018-08-10T13:19:44.876Z,13.10
2018-08-10T13:22:13.536Z,9.97
2018-08-10T13:24:42.324Z,9.50
2018-08-10T13:27:11.055Z,12.80
2018-08-10T13:29:39.926Z,9.33
2018-08-10T13:32:08.903Z,15.00
2018-08-10T13:34:37.668Z,10.53
2018-08-10T13:37:06.388Z,13.57
2018-08-10T13:39:35.227Z,14.97
2018-08-10T13:42:03.975Z,17.17
2018-08-10T13:44:32.687Z,11.37
2018-08-10T13:47:01.522Z,16.87
2018-08-10T13:49:30.339Z,18.97
2018-08-10T13:51:59.158Z,19.27
2018-08-10T13:54:27.929Z,20.27
2018-08-10T13:56:56.720Z,26.67
2018-08-10T13:59:25.419Z,20.80
2018-08-10T14:01:54.291Z,26.93
2018-08-10T14:04:23.143Z,26.20
2018-08-10T14:06:52.368Z,26.90
2018-08-10T14:09:21.200Z,25.40
2018-08-10T14:11:49.969Z,28.37
2018-08-10T14:14:18.749Z,29.73
2018-08-10T14:16:47.728Z,33.60
2018-08-10T14:19:16.964Z,25.37
2018-08-10T14:21:45.714Z,28.53
2018-08-10T14:24:14.438Z,29.13
2018-08-10T14:26:43.336Z,26.27
2018-08-10T14:29:12.126Z,26.00
2018-08-10T14:31:41.203Z,25.40
2018-08-10T14:34:10.349Z,27.30
2018-08-10T14:36:39.125Z,31.57
2018-08-10T14:39:11.363Z,25.83
2018-08-10T14:41:40.491Z,29.13
2018-08-10T14:44:09.357Z,27.27
2018-08-10T14:46:38.092Z,32.57
2018-08-10T14:49:07.964Z,30.27
2018-08-10T14:51:37.027Z,28.40
2018-08-10T14:54:06.159Z,31.70
2018-08-10T14:56:34.881Z,34.70
2018-08-10T14:59:03.572Z,29.53
2018-08-10T15:01:32.299Z,33.13
2018-08-10T15:04:01.172Z,31.67
2018-08-10T15:06:30.129Z,29.97
2018-08-10T15:08:58.992Z,33.00
2018-08-10T15:11:28.166Z,32.73
2018-08-10T15:13:57.100Z,38.77
2018-08-10T15:16:26.058Z,34.40
2018-08-10T15:18:55.074Z,34.97
2018-08-10T15:21:24.135Z,41.43
2018-08-10T15:23:53.117Z,39.03
2018-08-10T15:26:21.820Z,43.00
2018-08-10T15:28:50.618Z,45.93
2018-08-10T15:31:19.373Z,45.10
2018-08-10T15:33:48.311Z,41.50
2018-08-10T15:36:16.942Z,40.30
2018-08-10T15:38:45.696Z,43.53
2018-08-10T15:41:14.579Z,39.57
2018-08-10T15:43:43.417Z,39.07
2018-08-10T15:46:12.071Z,33.27
2018-08-10T15:48:40.927Z,34.70
2018-08-10T15:51:09.663Z,34.03
2018-08-10T15:53:38.801Z,29.07
2018-08-10T15:56:07.758Z,29.73
2018-08-10T15:58:36.465Z,28.73
2018-08-10T16:01:05.376Z,27.20
2018-08-10T16:03:34.127Z,28.47
2018-08-10T16:06:03.099Z,24.40
2018-08-10T16:08:31.821Z,25.37
2018-08-10T16:11:00.567Z,24.60
2018-08-10T16:13:29.594Z,20.97
2018-08-10T16:15:58.482Z,19.53
2018-08-10T16:18:27.357Z,18.07
2018-08-10T16:20:56.261Z,21.07
2018-08-10T16:23:25.052Z,17.37
2018-08-10T16:25:53.756Z,18.70
2018-08-10T16:28:22.461Z,17.80
2018-08-10T16:30:51.227Z,17.50
2018-08-10T16:33:19.961Z,18.90
2018-08-10T16:35:48.936Z,17.63
2018-08-10T16:38:17.691Z,18.50
2018-08-10T16:40:46.631Z,19.73
2018-08-10T16:43:15.417Z,22.80
2018-08-10T16:45:44.107Z,20.07
2018-08-10T16:48:12.867Z,20.60
2018-08-10T16:50:41.672Z,20.00
2018-08-10T16:53:10.641Z,21.13
2018-08-10T16:55:39.841Z,25.10
2018-08-10T16:58:09.025Z,25.57
2018-08-10T17:00:38.408Z,22.70
2018-08-10T17:03:07.618Z,27.30
2018-08-10T17:05:36.322Z,31.23
2018-08-10T17:08:05.645Z,25.73
2018-08-10T17:10:34.467Z,23.23
2018-08-10T17:13:03.632Z,23.40
2018-08-10T17:15:32.911Z,23.67
2018-08-10T17:18:01.866Z,25.73
2018-08-10T17:20:30.510Z,25.60
2018-08-10T17:22:59.500Z,21.60
2018-08-10T17:25:28.523Z,23.43
2018-08-10T17:27:57.369Z,23.07
2018-08-10T17:30:26.110Z,29.53
2018-08-10T17:32:55.295Z,26.27
2018-08-10T17:35:24.158Z,27.30
2018-08-10T17:37:53.155Z,32.43
2018-08-10T17:40:21.983Z,30.60
2018-08-10T17:42:50.871Z,33.53
2018-08-10T17:45:20.029Z,32.83
2018-08-10T17:47:48.817Z,30.73
2018-08-10T17:50:20.747Z,32.57
2018-08-10T17:52:51.257Z,26.07
2018-08-10T17:55:20.771Z,27.57
2018-08-10T17:57:50.328Z,29.87
2018-08-10T18:00:20.790Z,25.33
2018-08-10T18:02:50.586Z,28.03
2018-08-10T18:05:19.690Z,28.20
2018-08-10T18:07:49.348Z,26.80
2018-08-10T18:10:19.285Z,24.50
2018-08-10T18:12:48.433Z,22.33
2018-08-10T18:15:18.779Z,27.77
2018-08-10T18:17:48.238Z,23.90
2018-08-10T18:20:19.261Z,25.20
2018-08-10T18:22:49.680Z,30.00
2018-08-10T18:25:19.765Z,26.53
2018-08-10T18:27:48.795Z,25.87
2018-08-10T18:30:23.147Z,28.43
2018-08-10T18:32:52.639Z,27.43
2018-08-10T18:35:21.469Z,33.73
2018-08-10T18:37:51.610Z,30.53
2018-08-10T18:40:21.173Z,32.40
2018-08-10T18:42:50.588Z,29.27
2018-08-10T18:45:20.984Z,29.63
2018-08-10T18:47:50.185Z,27.57
2018-08-10T18:50:19.851Z,29.43
2018-08-10T18:52:48.734Z,34.47
2018-08-10T18:55:20.767Z,32.47
2018-08-10T18:57:51.598Z,32.40
2018-08-10T19:00:22.246Z,30.17
2018-08-10T19:02:51.742Z,30.83
2018-08-10T19:05:20.818Z,37.37
2018-08-10T19:07:50.406Z,30.47
2018-08-10T19:10:26.301Z,31.97
2018-08-10T19:12:55.338Z,36.27
2018-08-10T19:15:24.038Z,29.90
2018-08-10T19:17:53.045Z,39.30
2018-08-10T19:20:21.876Z,35.97
2018-08-10T19:22:50.685Z,35.30
2018-08-10T19:25:19.589Z,31.07
2018-08-10T19:27:48.506Z,31.17
2018-08-10T19:30:20.187Z,32.67
2018-08-10T19:32:49.539Z,31.13
2018-08-10T19:35:19.270Z,30.10
2018-08-10T19:37:48.110Z,28.37
2018-08-10T19:40:18.029Z,30.63
2018-08-10T19:42:46.900Z,29.13
2018-08-10T19:45:16.552Z,24.13
2018-08-10T19:47:45.757Z,24.87
2018-08-10T19:50:15.860Z,24.63
2018-08-10T19:52:44.752Z,23.27
2018-08-10T19:55:15.314Z,22.90
2018-08-10T19:57:44.304Z,24.73
2018-08-10T20:00:14.820Z,25.20
2018-08-10T20:02:43.879Z,22.60
2018-08-10T20:05:12.751Z,27.67
2018-08-10T20:07:41.657Z,24.67
2018-08-10T20:10:12.142Z,28.57
2018-08-10T20:12:41.340Z,26.77
2018-08-10T20:15:12.339Z,29.80
2018-08-10T20:17:41.960Z,30.73
2018-08-10T20:20:12.730Z,34.70
2018-08-10T20:22:41.479Z,32.43
2018-08-10T20:25:11.415Z,29.77
2018-08-10T20:27:40.841Z,36.07
2018-08-10T20:30:12.809Z,32.17
2018-08-10T20:32:41.510Z,35.77
2018-08-10T20:35:15.307Z,39.20
2018-08-10T20:37:44.870Z,33.37
2018-08-10T20:40:16.611Z,33.87
2018-08-10T20:42:45.942Z,33.90
2018-08-10T20:45:15.081Z,32.40
2018-08-10T20:47:44.305Z,36.27
2018-08-10T20:50:16.265Z,31.50
2018-08-10T20:52:45.497Z,36.80
2018-08-10T20:55:14.447Z,33.27
2018-08-10T20:57:45.995Z,33.00
2018-08-10T21:00:14.989Z,32.77
2018-08-10T21:02:44.659Z,32.57
2018-08-10T21:05:13.914Z,31.07
2018-08-10T21:07:44.557Z,32.13
2018-08-10T21:10:14.432Z,27.03
2018-08-10T21:12:44.637Z,23.40
2018-08-10T21:15:15.291Z,26.20
2018-08-10T21:17:44.838Z,26.80
2018-08-10T21:20:15.501Z,22.00
2018-08-10T21:22:44.414Z,26.37
2018-08-10T21:25:14.693Z,22.73
2018-08-10T21:27:45.420Z,20.67
2018-08-10T21:30:18.313Z,23.63
2018-08-10T21:32:49.223Z,22.70
2018-08-10T21:35:21.206Z,23.33
2018-08-10T21:37:50.730Z,24.03
2018-08-10T21:40:19.584Z,21.43
2018-08-10T21:42:48.411Z,25.23
2018-08-10T21:45:18.055Z,25.27
2018-08-10T21:47:46.933Z,27.70
2018-08-10T21:50:16.342Z,28.67
2018-08-10T21:52:45.762Z,27.67
2018-08-10T21:55:14.557Z,25.07
2018-08-10T21:57:43.615Z,27.63
2018-08-10T22:00:22.560Z,23.40
2018-08-10T22:02:51.287Z,27.50
2018-08-10T22:05:20.099Z,24.17
2018-08-10T22:07:48.838Z,24.57
2018-08-10T22:10:17.553Z,24.93
2018-08-10T22:12:48.798Z,25.73
2018-08-10T22:15:22.993Z,25.77
2018-08-10T22:17:56.997Z,20.17
2018-08-10T22:20:26.089Z,26.40
2018-08-10T22:22:55.018Z,28.43
2018-08-10T22:25:23.938Z,24.33
2018-08-10T22:27:52.705Z,22.20
2018-08-10T22:30:21.698Z,20.03
2018-08-10T22:32:50.535Z,23.40
2018-08-10T22:35:19.428Z,24.30
2018-08-10T22:37:48.490Z,23.80
2018-08-10T22:40:17.579Z,20.43
2018-08-10T22:42:46.535Z,20.73
2018-08-10T22:45:15.285Z,19.27
2018-08-10T22:47:44.397Z,17.50
2018-08-10T22:50:13.144Z,22.80
2018-08-10T22:52:42.249Z,16.93
2018-08-10T22:55:11.001Z,18.40
2018-08-10T22:57:39.862Z,15.03
2018-08-10T23:00:08.570Z,16.80
2018-08-10T23:02:37.547Z,20.23
2018-08-10T23:05:06.878Z,16.53
2018-08-10T23:07:36.054Z,15.33
2018-08-10T23:10:06.683Z,17.27
2018-08-10T23:12:35.678Z,14.73
2018-08-10T23:15:05.379Z,18.83
2018-08-10T23:17:34.018Z,14.07
2018-08-10T23:20:02.936Z,13.67
2018-08-10T23:22:31.587Z,15.67
2018-08-10T23:25:00.155Z,15.90
2018-08-10T23:27:28.859Z,15.20
2018-08-10T23:29:57.631Z,11.27
2018-08-10T23:32:27.345Z,11.53
2018-08-10T23:34:56.097Z,12.83
2018-08-10T23:37:24.912Z,13.40
2018-08-10T23:39:53.657Z,9.63
2018-08-10T23:42:23.367Z,11.33
2018-08-10T23:44:52.168Z,13.60
2018-08-10T23:47:22.025Z,10.13
2018-08-10T23:49:50.718Z,11.17
2018-08-10T23:52:19.452Z,9.60
2018-08-10T23:54:48.579Z,11.30
2018-08-10T23:57:17.639Z,7.80
2018-08-10T23:59:46.841Z,8.10
